sensor_id;sensor_type;location;lat;lon;timestamp;temperature;humidity
64634;DHT22;51043;52.406;9.690;2023-06-01T00:01:31;11.60;99.90
64634;DHT22;51043;52.406;9.690;2023-06-01T00:04:04;11.60;99.90
64634;DHT22;51043;52.406;9.690;2023-06-01T00:06:34;11.60;99.90
64634;DHT22;51043;52.406;9.690;2023-06-01T00:09:05;11.60;99.90
64634;DHT22;51043;52.406;9.690;2023-06-01T00:11:35;11.50;99.90
64634;DHT22;51043;52.406;9.690;2023-06-01T00:14:04;11.50;99.90
64634;DHT22;51043;52.406;9.690;2023-06-01T00:16:32;11.40;99.90
64634;DHT22;51043;52.406;9.690;2023-06-01T00:19:00;11.60;99.90
64634;DHT22;51043;52.406;9.690;2023-06-01T00:21:30;11.60;99.90
64634;DHT22;51043;52.406;9.690;2023-06-01T00:24:04;11.40;99.90
64634;DHT22;51043;52.406;9.690;2023-06-01T00:26:32;11.50;99.90
64634;DHT22;51043;52.406;9.690;2023-06-01T00:29:02;11.40;99.90
64634;DHT22;51043;52.406;9.690;2023-06-01T00:31:31;11.40;99.90
64634;DHT22;51043;52.406;9.690;2023-06-01T00:33:59;11.50;99.90
64634;DHT22;51043;52.406;9.690;2023-06-01T00:36:28;11.50;99.90
64634;DHT22;51043;52.406;9.690;2023-06-01T00:39:00;11.50;99.90
64634;DHT22;51043;52.406;9.690;2023-06-01T00:41:32;11.60;99.90
64634;DHT22;51043;52.406;9.690;2023-06-01T00:44:02;11.60;99.90
64634;DHT22;51043;52.406;9.690;2023-06-01T00:46:37;11.50;99.90
64634;DHT22;51043;52.406;9.690;2023-06-01T00:49:05;11.50;99.90
64634;DHT22;51043;52.406;9.690;2023-06-01T00:51:34;11.50;99.90
64634;DHT22;51043;52.406;9.690;2023-06-01T00:54:03;11.50;99.90
64634;DHT22;51043;52.406;9.690;2023-06-01T00:56:32;11.50;99.90
64634;DHT22;51043;52.406;9.690;2023-06-01T00:59:03;11.50;99.90
64634;DHT22;51043;52.406;9.690;2023-06-01T01:01:32;11.50;99.90
64634;DHT22;51043;52.406;9.690;2023-06-01T01:04:00;11.60;99.90
64634;DHT22;51043;52.406;9.690;2023-06-01T01:06:39;11.70;99.90
64634;DHT22;51043;52.406;9.690;2023-06-01T01:09:20;11.60;99.90
64634;DHT22;51043;52.406;9.690;2023-06-01T01:11:55;11.60;99.90
64634;DHT22;51043;52.406;9.690;2023-06-01T01:14:39;11.50;99.90
64634;DHT22;51043;52.406;9.690;2023-06-01T01:17:15;11.70;99.90
64634;DHT22;51043;52.406;9.690;2023-06-01T01:19:53;11.50;99.90
64634;DHT22;51043;52.406;9.690;2023-06-01T01:22:43;11.50;99.90
64634;DHT22;51043;52.406;9.690;2023-06-01T01:25:27;11.60;99.90
64634;DHT22;51043;52.406;9.690;2023-06-01T01:28:10;11.50;99.90
64634;DHT22;51043;52.406;9.690;2023-06-01T01:30:44;11.50;99.90
64634;DHT22;51043;52.406;9.690;2023-06-01T01:33:13;11.50;99.90
64634;DHT22;51043;52.406;9.690;2023-06-01T01:35:43;11.50;99.90
64634;DHT22;51043;52.406;9.690;2023-06-01T01:38:11;11.50;99.90
64634;DHT22;51043;52.406;9.690;2023-06-01T01:40:40;11.50;99.90
64634;DHT22;51043;52.406;9.690;2023-06-01T01:43:08;11.60;99.90
64634;DHT22;51043;52.406;9.690;2023-06-01T01:45:37;11.50;99.90
64634;DHT22;51043;52.406;9.690;2023-06-01T01:48:11;11.50;99.90
64634;DHT22;51043;52.406;9.690;2023-06-01T01:50:49;11.50;99.90
64634;DHT22;51043;52.406;9.690;2023-06-01T01:53:19;11.50;99.90
64634;DHT22;51043;52.406;9.690;2023-06-01T01:55:49;11.50;99.90
64634;DHT22;51043;52.406;9.690;2023-06-01T01:58:18;11.50;99.90
64634;DHT22;51043;52.406;9.690;2023-06-01T02:00:49;11.50;99.90
64634;DHT22;51043;52.406;9.690;2023-06-01T02:03:19;11.50;99.90
64634;DHT22;51043;52.406;9.690;2023-06-01T02:05:48;11.50;99.90
64634;DHT22;51043;52.406;9.690;2023-06-01T02:08:17;11.50;99.90
64634;DHT22;51043;52.406;9.690;2023-06-01T02:10:45;11.50;99.90
64634;DHT22;51043;52.406;9.690;2023-06-01T02:13:14;11.20;99.90
64634;DHT22;51043;52.406;9.690;2023-06-01T02:15:42;11.30;99.90
64634;DHT22;51043;52.406;9.690;2023-06-01T02:18:10;11.20;99.90
64634;DHT22;51043;52.406;9.690;2023-06-01T02:20:40;11.30;99.90
64634;DHT22;51043;52.406;9.690;2023-06-01T02:23:08;11.30;99.90
64634;DHT22;51043;52.406;9.690;2023-06-01T02:25:37;11.30;99.90
64634;DHT22;51043;52.406;9.690;2023-06-01T02:28:07;11.40;99.90
64634;DHT22;51043;52.406;9.690;2023-06-01T02:30:37;11.40;99.90
64634;DHT22;51043;52.406;9.690;2023-06-01T02:33:06;11.30;99.90
64634;DHT22;51043;52.406;9.690;2023-06-01T02:35:34;11.40;99.90
64634;DHT22;51043;52.406;9.690;2023-06-01T02:38:04;11.40;99.90
64634;DHT22;51043;52.406;9.690;2023-06-01T02:40:32;11.30;99.90
64634;DHT22;51043;52.406;9.690;2023-06-01T02:43:00;11.40;99.90
64634;DHT22;51043;52.406;9.690;2023-06-01T02:45:29;11.40;99.90
64634;DHT22;51043;52.406;9.690;2023-06-01T02:47:58;11.40;99.90
64634;DHT22;51043;52.406;9.690;2023-06-01T02:50:26;11.40;99.90
64634;DHT22;51043;52.406;9.690;2023-06-01T02:52:55;11.30;99.90
64634;DHT22;51043;52.406;9.690;2023-06-01T02:55:25;11.30;99.90
64634;DHT22;51043;52.406;9.690;2023-06-01T02:58:22;11.30;99.90
64634;DHT22;51043;52.406;9.690;2023-06-01T03:01:01;11.30;99.90
64634;DHT22;51043;52.406;9.690;2023-06-01T03:03:30;11.20;99.90
64634;DHT22;51043;52.406;9.690;2023-06-01T03:05:59;11.30;99.90
64634;DHT22;51043;52.406;9.690;2023-06-01T03:08:52;11.30;99.90
64634;DHT22;51043;52.406;9.690;2023-06-01T03:11:44;11.30;99.90
64634;DHT22;51043;52.406;9.690;2023-06-01T03:14:13;11.30;99.90
64634;DHT22;51043;52.406;9.690;2023-06-01T03:16:42;11.10;99.90
64634;DHT22;51043;52.406;9.690;2023-06-01T03:19:15;11.20;99.90
64634;DHT22;51043;52.406;9.690;2023-06-01T03:21:46;11.20;99.90
64634;DHT22;51043;52.406;9.690;2023-06-01T03:24:18;11.20;99.90
64634;DHT22;51043;52.406;9.690;2023-06-01T03:26:48;11.20;99.90
64634;DHT22;51043;52.406;9.690;2023-06-01T03:29:17;11.20;99.90
64634;DHT22;51043;52.406;9.690;2023-06-01T03:31:45;11.30;99.90
64634;DHT22;51043;52.406;9.690;2023-06-01T03:34:16;11.20;99.90
64634;DHT22;51043;52.406;9.690;2023-06-01T03:36:44;11.20;99.90
64634;DHT22;51043;52.406;9.690;2023-06-01T03:39:15;11.30;99.90
64634;DHT22;51043;52.406;9.690;2023-06-01T03:41:44;11.30;99.90
64634;DHT22;51043;52.406;9.690;2023-06-01T03:44:14;11.30;99.90
64634;DHT22;51043;52.406;9.690;2023-06-01T03:46:43;11.20;99.90
64634;DHT22;51043;52.406;9.690;2023-06-01T03:49:12;11.10;99.90
64634;DHT22;51043;52.406;9.690;2023-06-01T03:51:40;11.10;99.90
64634;DHT22;51043;52.406;9.690;2023-06-01T03:54:09;11.10;99.90
64634;DHT22;51043;52.406;9.690;2023-06-01T03:56:39;11.10;99.90
64634;DHT22;51043;52.406;9.690;2023-06-01T03:59:08;11.20;99.90
64634;DHT22;51043;52.406;9.690;2023-06-01T04:01:40;11.20;99.90
64634;DHT22;51043;52.406;9.690;2023-06-01T04:04:10;11.30;99.90
64634;DHT22;51043;52.406;9.690;2023-06-01T04:06:42;11.30;99.90
64634;DHT22;51043;52.406;9.690;2023-06-01T04:09:13;11.40;99.90
64634;DHT22;51043;52.406;9.690;2023-06-01T04:11:43;11.40;99.90
64634;DHT22;51043;52.406;9.690;2023-06-01T04:14:12;11.30;99.90
64634;DHT22;51043;52.406;9.690;2023-06-01T04:16:43;11.30;99.90
64634;DHT22;51043;52.406;9.690;2023-06-01T04:19:11;11.30;99.90
64634;DHT22;51043;52.406;9.690;2023-06-01T04:21:39;11.20;99.90
64634;DHT22;51043;52.406;9.690;2023-06-01T04:24:08;11.20;99.90
64634;DHT22;51043;52.406;9.690;2023-06-01T04:26:36;11.10;99.90
64634;DHT22;51043;52.406;9.690;2023-06-01T04:29:05;11.20;99.90
64634;DHT22;51043;52.406;9.690;2023-06-01T04:31:33;11.20;99.90
64634;DHT22;51043;52.406;9.690;2023-06-01T04:34:03;11.20;99.90
64634;DHT22;51043;52.406;9.690;2023-06-01T04:36:33;11.30;99.90
64634;DHT22;51043;52.406;9.690;2023-06-01T04:39:07;11.30;99.90
64634;DHT22;51043;52.406;9.690;2023-06-01T04:41:36;11.30;99.90
64634;DHT22;51043;52.406;9.690;2023-06-01T04:44:06;11.40;99.90
64634;DHT22;51043;52.406;9.690;2023-06-01T04:46:35;11.50;99.90
64634;DHT22;51043;52.406;9.690;2023-06-01T04:49:09;11.60;99.90
64634;DHT22;51043;52.406;9.690;2023-06-01T04:51:39;11.70;99.90
64634;DHT22;51043;52.406;9.690;2023-06-01T04:54:08;11.60;99.90
64634;DHT22;51043;52.406;9.690;2023-06-01T04:56:36;11.70;99.90
64634;DHT22;51043;52.406;9.690;2023-06-01T04:59:05;11.70;99.90
64634;DHT22;51043;52.406;9.690;2023-06-01T05:01:33;11.70;99.90
64634;DHT22;51043;52.406;9.690;2023-06-01T05:04:04;11.80;99.90
64634;DHT22;51043;52.406;9.690;2023-06-01T05:06:36;11.80;99.90
64634;DHT22;51043;52.406;9.690;2023-06-01T05:09:05;11.70;99.90
64634;DHT22;51043;52.406;9.690;2023-06-01T05:11:33;11.90;99.90
64634;DHT22;51043;52.406;9.690;2023-06-01T05:14:04;11.90;99.90
64634;DHT22;51043;52.406;9.690;2023-06-01T05:16:33;12.00;99.90
64634;DHT22;51043;52.406;9.690;2023-06-01T05:19:02;12.10;99.90
64634;DHT22;51043;52.406;9.690;2023-06-01T05:21:34;12.00;99.90
64634;DHT22;51043;52.406;9.690;2023-06-01T05:24:02;12.00;99.90
64634;DHT22;51043;52.406;9.690;2023-06-01T05:26:31;12.10;99.90
64634;DHT22;51043;52.406;9.690;2023-06-01T05:29:02;12.10;99.90
64634;DHT22;51043;52.406;9.690;2023-06-01T05:31:37;12.20;99.90
64634;DHT22;51043;52.406;9.690;2023-06-01T05:34:07;12.10;99.90
64634;DHT22;51043;52.406;9.690;2023-06-01T05:36:37;12.10;99.90
64634;DHT22;51043;52.406;9.690;2023-06-01T05:39:06;12.10;99.90
64634;DHT22;51043;52.406;9.690;2023-06-01T05:41:35;12.10;99.90
64634;DHT22;51043;52.406;9.690;2023-06-01T05:44:04;12.20;99.90
64634;DHT22;51043;52.406;9.690;2023-06-01T05:46:33;12.20;99.90
64634;DHT22;51043;52.406;9.690;2023-06-01T05:49:04;12.30;99.90
64634;DHT22;51043;52.406;9.690;2023-06-01T05:51:33;12.30;99.90
64634;DHT22;51043;52.406;9.690;2023-06-01T05:54:06;12.40;99.90
64634;DHT22;51043;52.406;9.690;2023-06-01T05:56:35;12.40;99.90
64634;DHT22;51043;52.406;9.690;2023-06-01T05:59:06;12.40;99.90
64634;DHT22;51043;52.406;9.690;2023-06-01T06:01:35;12.40;99.90
64634;DHT22;51043;52.406;9.690;2023-06-01T06:04:07;12.40;99.90
64634;DHT22;51043;52.406;9.690;2023-06-01T06:06:35;12.40;99.90
64634;DHT22;51043;52.406;9.690;2023-06-01T06:09:05;12.30;99.90
64634;DHT22;51043;52.406;9.690;2023-06-01T06:11:37;12.30;99.90
64634;DHT22;51043;52.406;9.690;2023-06-01T06:14:05;12.40;99.90
64634;DHT22;51043;52.406;9.690;2023-06-01T06:16:34;12.30;99.90
64634;DHT22;51043;52.406;9.690;2023-06-01T06:19:05;12.30;99.90
64634;DHT22;51043;52.406;9.690;2023-06-01T06:21:37;12.30;99.90
64634;DHT22;51043;52.406;9.690;2023-06-01T06:24:07;12.40;99.90
64634;DHT22;51043;52.406;9.690;2023-06-01T06:26:36;12.50;99.90
64634;DHT22;51043;52.406;9.690;2023-06-01T06:29:04;12.50;99.90
64634;DHT22;51043;52.406;9.690;2023-06-01T06:31:32;12.60;99.90
64634;DHT22;51043;52.406;9.690;2023-06-01T06:34:01;12.40;99.90
64634;DHT22;51043;52.406;9.690;2023-06-01T06:36:29;12.60;99.90
64634;DHT22;51043;52.406;9.690;2023-06-01T06:38:58;12.50;99.90
64634;DHT22;51043;52.406;9.690;2023-06-01T06:41:28;12.50;99.90
64634;DHT22;51043;52.406;9.690;2023-06-01T06:43:56;12.50;99.90
64634;DHT22;51043;52.406;9.690;2023-06-01T06:46:25;12.50;99.90
64634;DHT22;51043;52.406;9.690;2023-06-01T06:48:53;12.70;99.90
64634;DHT22;51043;52.406;9.690;2023-06-01T06:51:22;12.60;99.90
64634;DHT22;51043;52.406;9.690;2023-06-01T06:53:50;12.70;99.90
64634;DHT22;51043;52.406;9.690;2023-06-01T06:56:21;12.80;99.90
64634;DHT22;51043;52.406;9.690;2023-06-01T06:58:50;12.90;99.90
64634;DHT22;51043;52.406;9.690;2023-06-01T07:01:26;12.80;99.90
64634;DHT22;51043;52.406;9.690;2023-06-01T07:03:54;12.90;99.90
64634;DHT22;51043;52.406;9.690;2023-06-01T07:06:23;12.90;99.90
64634;DHT22;51043;52.406;9.690;2023-06-01T07:08:52;13.00;99.90
64634;DHT22;51043;52.406;9.690;2023-06-01T07:11:20;13.00;99.90
64634;DHT22;51043;52.406;9.690;2023-06-01T07:13:50;13.10;99.90
64634;DHT22;51043;52.406;9.690;2023-06-01T07:16:19;13.10;99.90
64634;DHT22;51043;52.406;9.690;2023-06-01T07:18:47;13.10;99.90
64634;DHT22;51043;52.406;9.690;2023-06-01T07:21:16;13.00;99.90
64634;DHT22;51043;52.406;9.690;2023-06-01T07:23:44;13.10;99.90
64634;DHT22;51043;52.406;9.690;2023-06-01T07:26:13;13.10;99.90
64634;DHT22;51043;52.406;9.690;2023-06-01T07:28:41;13.10;99.90
64634;DHT22;51043;52.406;9.690;2023-06-01T07:31:11;13.20;99.90
64634;DHT22;51043;52.406;9.690;2023-06-01T07:33:40;13.10;99.90
64634;DHT22;51043;52.406;9.690;2023-06-01T07:36:08;13.10;99.90
64634;DHT22;51043;52.406;9.690;2023-06-01T07:38:36;13.20;99.90
64634;DHT22;51043;52.406;9.690;2023-06-01T07:41:09;13.30;99.90
64634;DHT22;51043;52.406;9.690;2023-06-01T07:43:38;13.30;99.90
64634;DHT22;51043;52.406;9.690;2023-06-01T07:46:06;13.30;99.90
64634;DHT22;51043;52.406;9.690;2023-06-01T07:48:41;13.30;99.90
64634;DHT22;51043;52.406;9.690;2023-06-01T07:51:10;13.20;99.90
64634;DHT22;51043;52.406;9.690;2023-06-01T07:53:38;13.20;99.90
64634;DHT22;51043;52.406;9.690;2023-06-01T07:56:09;13.20;99.90
64634;DHT22;51043;52.406;9.690;2023-06-01T07:58:37;13.20;99.90
64634;DHT22;51043;52.406;9.690;2023-06-01T08:01:09;13.50;99.90
64634;DHT22;51043;52.406;9.690;2023-06-01T08:03:43;13.50;99.90
64634;DHT22;51043;52.406;9.690;2023-06-01T08:06:12;13.50;99.90
64634;DHT22;51043;52.406;9.690;2023-06-01T08:08:42;13.60;99.90
